Time;durP1;ratioP1;P1;durP2;ratioP2;P2;SDS_P1;SDS_P2;PMS_P1;PMS_P2;Temp;Humidity;BMP_temperature;BMP_pressure;BME280_temperature;BME280_humidity;BME280_pressure;Samples;Min_cycle;Max_cycle;Signal;HPM_P1;HPM_P2
2020/12/11 00:02:24;;;;;;;48.68;25.52;;;;;;;3.47;85.36;99566.69;1703625;82;28715;-78
2020/12/11 00:04:49;;;;;;;41.57;23.73;;;;;;;3.48;85.28;99561.83;1700030;81;27818;-79
2020/12/11 00:07:15;;;;;;;47.70;26.47;;;;;;;3.49;85.31;99561.34;1704688;82;22015;-79
2020/12/11 00:09:41;;;;;;;48.50;25.63;;;;;;;3.38;85.72;99555.69;1714632;82;24557;-81
2020/12/11 00:12:06;;;;;;;47.73;26.87;;;;;;;3.41;85.96;99564.09;1703424;82;20926;-79
2020/12/11 00:14:32;;;;;;;44.88;25.20;;;;;;;3.39;85.85;99558.66;1710561;82;28525;-79
2020/12/11 00:16:58;;;;;;;47.85;25.68;;;;;;;3.45;85.88;99562.08;1709657;82;26835;-79
2020/12/11 00:19:24;;;;;;;46.30;25.37;;;;;;;3.40;85.77;99565.06;1697225;82;21418;-79
2020/12/11 00:21:50;;;;;;;41.20;24.63;;;;;;;3.43;85.69;99562.66;1707792;82;23658;-78
2020/12/11 00:24:16;;;;;;;44.18;24.98;;;;;;;3.40;85.69;99559.00;1703105;81;21169;-79
2020/12/11 00:26:41;;;;;;;46.98;25.90;;;;;;;3.44;85.57;99563.02;1711743;82;28479;-78
2020/12/11 00:29:07;;;;;;;46.83;25.43;;;;;;;3.43;85.64;99561.36;1713819;81;27474;-78
2020/12/11 00:31:33;;;;;;;47.97;25.70;;;;;;;3.51;85.41;99562.03;1701551;81;21430;-78
2020/12/11 00:33:59;;;;;;;45.67;26.13;;;;;;;3.48;85.32;99567.05;1703268;82;24055;-78
2020/12/11 00:36:24;;;;;;;45.63;26.03;;;;;;;3.48;85.48;99564.44;1705432;82;21081;-78
2020/12/11 00:38:52;;;;;;;41.70;25.95;;;;;;;3.47;85.33;99565.87;1701974;82;28257;-78
2020/12/11 00:41:17;;;;;;;46.48;24.87;;;;;;;3.45;85.53;99567.30;1717461;82;21208;-78
2020/12/11 00:43:43;;;;;;;45.73;26.00;;;;;;;3.47;85.61;99567.99;1703518;82;21498;-78
2020/12/11 00:46:09;;;;;;;49.80;26.43;;;;;;;3.44;85.55;99571.34;1703403;82;24506;-78
2020/12/11 00:48:35;;;;;;;43.17;25.43;;;;;;;3.42;85.66;99584.52;1698083;81;21703;-78
2020/12/11 00:51:00;;;;;;;47.20;26.25;;;;;;;3.39;85.72;99582.16;1692109;82;28558;-78
2020/12/11 00:53:26;;;;;;;41.40;24.50;;;;;;;3.45;85.64;99582.96;1702069;81;27211;-80
2020/12/11 00:55:52;;;;;;;48.00;25.90;;;;;;;3.43;85.68;99580.93;1693927;81;21467;-80
2020/12/11 00:58:19;;;;;;;42.43;24.07;;;;;;;3.29;86.06;99579.92;1716039;82;21224;-81
2020/12/11 01:00:44;;;;;;;40.85;24.70;;;;;;;3.29;86.10;99586.44;1707812;82;21295;-78
2020/12/11 01:03:10;;;;;;;42.83;24.73;;;;;;;3.35;86.12;99582.03;1704551;82;26404;-78
2020/12/11 01:05:36;;;;;;;41.40;24.17;;;;;;;3.38;86.14;99580.48;1701650;81;27835;-78
2020/12/11 01:08:05;;;;;;;45.47;25.13;;;;;;;3.41;86.01;99585.45;1711103;82;21036;-78
2020/12/11 01:10:31;;;;;;;38.40;22.10;;;;;;;3.45;85.92;99582.96;1692152;82;21243;-78
2020/12/11 01:12:57;;;;;;;42.13;24.63;;;;;;;3.43;85.81;99584.84;1701761;82;20993;-79
2020/12/11 01:15:23;;;;;;;42.17;24.12;;;;;;;3.46;85.80;99576.77;1695079;82;26760;-79
2020/12/11 01:17:49;;;;;;;40.03;23.70;;;;;;;3.47;85.74;99575.83;1704513;82;27201;-80
2020/12/11 01:20:15;;;;;;;37.65;22.73;;;;;;;3.42;85.78;99572.77;1697731;82;21251;-79
2020/12/11 01:22:40;;;;;;;40.57;22.83;;;;;;;3.41;85.88;99580.23;1701955;82;21118;-79
2020/12/11 01:25:06;;;;;;;39.00;23.50;;;;;;;3.35;86.00;99584.65;1694515;81;20966;-79
2020/12/11 01:27:32;;;;;;;40.15;23.02;;;;;;;3.39;85.94;99586.06;1685291;81;27858;-79
2020/12/11 01:29:58;;;;;;;42.60;22.93;;;;;;;3.43;85.99;99584.84;1698764;82;27667;-79
2020/12/11 01:32:23;;;;;;;37.77;22.13;;;;;;;3.40;86.02;99586.40;1704961;81;21659;-79
2020/12/11 01:34:49;;;;;;;40.37;23.27;;;;;;;3.41;86.00;99580.23;1710203;81;25560;-79
2020/12/11 01:37:15;;;;;;;35.13;22.17;;;;;;;3.38;86.01;99576.57;1692839;82;20989;-79
2020/12/11 01:39:41;;;;;;;39.93;22.40;;;;;;;3.41;86.18;99584.16;1698618;81;26969;-79
2020/12/11 01:42:12;;;;;;;35.35;21.12;;;;;;;3.39;86.19;99580.84;1711860;82;25347;-79
2020/12/11 01:44:38;;;;;;;36.15;21.90;;;;;;;3.42;86.09;99572.77;1698273;82;21220;-79
2020/12/11 01:47:03;;;;;;;38.75;22.32;;;;;;;3.37;86.18;99577.52;1710713;82;21215;-79
2020/12/11 01:49:29;;;;;;;38.37;22.50;;;;;;;3.41;86.11;99573.71;1707321;81;21445;-79
2020/12/11 01:51:55;;;;;;;34.08;21.27;;;;;;;3.33;86.18;99576.13;1705570;82;21672;-79
2020/12/11 01:54:21;;;;;;;36.95;21.45;;;;;;;3.36;86.24;99573.27;1704058;81;26849;-79
2020/12/11 01:56:53;;;;;;;37.13;21.37;;;;;;;3.41;86.12;99576.33;1702663;82;22040;-79
2020/12/11 01:59:40;;;;;;;36.35;21.60;;;;;;;3.40;86.07;99571.59;1701479;82;21483;-79
2020/12/11 02:02:06;;;;;;;26.65;15.60;;;;;;;3.46;85.99;99578.07;1706806;82;21633;-79
2020/12/11 02:04:36;;;;;;;38.38;22.10;;;;;;;3.53;85.95;99570.59;1693073;81;21171;-79
2020/12/11 02:07:02;;;;;;;33.58;21.27;;;;;;;3.57;86.04;99576.74;1705139;82;21216;-79
2020/12/11 02:09:34;;;;;;;37.45;21.12;;;;;;;3.63;85.86;99575.39;1703559;82;21176;-79
2020/12/11 02:12:04;;;;;;;35.40;21.73;;;;;;;3.68;85.76;99582.84;1674301;82;21293;-78
2020/12/11 02:14:29;;;;;;;33.60;20.43;;;;;;;3.69;85.44;99585.82;1697553;81;21509;-79
2020/12/11 02:16:59;;;;;;;35.55;20.55;;;;;;;3.66;85.39;99575.14;1716112;81;26943;-79
2020/12/11 02:19:29;;;;;;;32.88;20.17;;;;;;;3.65;85.15;99574.81;1714274;82;21192;-79
2020/12/11 02:21:53;;;;;;;35.73;20.05;;;;;;;3.63;85.21;99572.78;1709438;82;21140;-79
2020/12/11 02:24:19;;;;;;;30.23;19.80;;;;;;;3.63;85.30;99569.35;1701211;81;25108;-79
2020/12/11 02:26:45;;;;;;;37.63;20.50;;;;;;;3.66;85.17;99569.10;1698980;82;24148;-78
2020/12/11 02:29:10;;;;;;;32.30;20.27;;;;;;;3.69;85.08;99563.14;1705776;81;28069;-79
2020/12/11 02:31:36;;;;;;;32.00;20.25;;;;;;;3.71;85.11;99560.41;1694842;81;26490;-79
2020/12/11 02:34:02;;;;;;;32.67;20.60;;;;;;;3.64;84.99;99559.27;1701117;82;21659;-79
2020/12/11 02:36:28;;;;;;;35.60;21.50;;;;;;;3.62;85.23;99558.09;1708059;82;25639;-79
2020/12/11 02:38:53;;;;;;;31.00;19.63;;;;;;;3.65;85.09;99562.21;1694891;82;21101;-79
2020/12/11 02:41:19;;;;;;;32.00;19.73;;;;;;;3.66;85.15;99560.78;1705370;82;28890;-79
2020/12/11 02:43:45;;;;;;;32.05;19.40;;;;;;;3.63;85.07;99561.52;1708271;81;26795;-79
2020/12/11 02:46:11;;;;;;;38.47;21.83;;;;;;;3.67;85.07;99562.94;1696902;82;21711;-79
2020/12/11 02:48:36;;;;;;;31.07;19.60;;;;;;;3.65;84.92;99556.99;1692742;82;26475;-79
2020/12/11 02:51:02;;;;;;;34.53;20.10;;;;;;;3.63;85.05;99559.73;1698895;81;21036;-78
2020/12/11 02:53:28;;;;;;;33.40;20.10;;;;;;;3.66;85.07;99552.13;1706764;82;28420;-78
2020/12/11 02:55:56;;;;;;;33.28;19.85;;;;;;;3.66;85.10;99553.44;1710441;82;25955;-79
2020/12/11 02:58:21;;;;;;;;;;;;;;;3.62;85.16;99548.11;1683864;82;21440;-79
2020/12/11 03:00:47;;;;;;;32.88;19.12;;;;;;;3.57;85.20;99548.02;1701447;82;20268;-79
2020/12/11 03:03:12;;;;;;;30.97;18.47;;;;;;;3.59;85.37;99548.72;1706786;82;21792;-79
2020/12/11 03:05:38;;;;;;;34.13;20.15;;;;;;;3.65;85.29;99542.63;1705897;82;28741;-79
2020/12/11 03:08:04;;;;;;;32.03;19.95;;;;;;;3.67;85.21;99540.74;1713880;82;26904;-79
2020/12/11 03:10:30;;;;;;;35.30;20.20;;;;;;;3.69;85.12;99536.21;1694008;82;21432;-79
2020/12/11 03:12:55;;;;;;;32.57;20.33;;;;;;;3.62;85.06;99536.36;1705639;82;23426;-79
2020/12/11 03:15:21;;;;;;;34.20;20.43;;;;;;;3.57;85.12;99543.26;1706251;81;21847;-79
2020/12/11 03:17:47;;;;;;;31.12;20.10;;;;;;;3.54;85.30;99535.23;1695216;82;28206;-79
2020/12/11 03:20:22;;;;;;;31.50;19.63;;;;;;;3.55;85.38;99538.16;1711282;82;23259;-78
2020/12/11 03:22:40;;;;;;;33.65;20.40;;;;;;;3.55;85.48;99540.78;1699348;82;21222;-78
2020/12/11 03:25:06;;;;;;;36.07;20.33;;;;;;;3.58;85.46;99541.02;1699592;82;23587;-79
2020/12/11 03:27:31;;;;;;;30.93;19.23;;;;;;;3.53;85.53;99541.39;1688681;82;21038;-79
2020/12/11 03:29:57;;;;;;;36.60;21.02;;;;;;;3.52;85.53;99546.25;1701415;82;28351;-79
2020/12/11 03:32:23;;;;;;;30.77;19.32;;;;;;;3.55;85.58;99546.48;1700322;81;25889;-79
2020/12/11 03:34:49;;;;;;;31.53;19.63;;;;;;;3.56;85.53;99545.55;1710946;82;22291;-79
2020/12/11 03:37:17;;;;;;;32.20;19.90;;;;;;;3.51;85.63;99550.29;1706167;81;21572;-79
2020/12/11 03:39:43;;;;;;;33.05;20.17;;;;;;;3.54;85.51;99548.28;1700815;81;21171;-78
2020/12/11 03:42:09;;;;;;;30.83;19.50;;;;;;;3.45;85.73;99558.16;1705618;82;28612;-79
2020/12/11 03:44:34;;;;;;;33.25;20.20;;;;;;;3.41;86.05;99559.36;1699068;82;26250;-78
2020/12/11 03:47:00;;;;;;;32.03;19.42;;;;;;;3.43;85.97;99553.52;1703780;82;22012;-78
2020/12/11 03:49:26;;;;;;;30.67;19.77;;;;;;;3.45;86.01;99554.25;1708106;81;22582;-79
2020/12/11 03:51:53;;;;;;;34.17;21.17;;;;;;;3.43;86.11;99548.30;1699365;81;21017;-79
2020/12/11 03:54:19;;;;;;;32.17;20.62;;;;;;;3.40;86.24;99552.47;1701815;82;21121;-78
2020/12/11 03:56:48;;;;;;;31.37;20.08;;;;;;;3.36;86.24;99551.90;1698237;81;21279;-79
2020/12/11 03:59:14;;;;;;;34.60;20.70;;;;;;;3.35;86.33;99548.93;1686532;81;21428;-79
2020/12/11 04:01:40;;;;;;;33.75;20.32;;;;;;;3.43;86.52;99548.30;1710156;81;21205;-79
2020/12/11 04:04:05;;;;;;;35.33;21.57;;;;;;;3.47;86.35;99551.52;1705915;82;20990;-78
2020/12/11 04:06:31;;;;;;;31.80;21.20;;;;;;;3.49;86.31;99558.73;1705272;81;29232;-78
2020/12/11 04:08:57;;;;;;;32.70;21.43;;;;;;;3.48;86.08;99556.61;1691327;81;28151;-79
2020/12/11 04:11:23;;;;;;;34.63;20.30;;;;;;;3.43;86.03;99561.36;1702379;81;21473;-78
2020/12/11 04:13:48;;;;;;;31.90;19.30;;;;;;;3.48;86.06;99563.59;1693056;82;23801;-79
2020/12/11 04:16:14;;;;;;;30.60;20.00;;;;;;;3.49;86.05;99562.65;1701725;82;21037;-79
2020/12/11 04:18:42;;;;;;;32.50;19.80;;;;;;;3.48;86.08;99569.66;1695512;82;29319;-78
2020/12/11 04:21:14;;;;;;;33.30;20.62;;;;;;;3.51;85.98;99564.19;1703326;82;21184;-78
2020/12/11 04:23:41;;;;;;;31.90;21.23;;;;;;;3.45;85.96;99565.99;1709202;82;21239;-78
2020/12/11 04:26:07;;;;;;;33.90;20.27;;;;;;;3.38;86.22;99564.34;1717374;82;21665;-80
2020/12/11 04:28:32;;;;;;;35.30;21.37;;;;;;;3.48;86.00;99567.05;1701589;81;20949;-78
2020/12/11 04:30:59;;;;;;;36.55;21.42;;;;;;;3.39;86.24;99562.58;1693755;82;21133;-78
2020/12/11 04:33:24;;;;;;;34.23;21.55;;;;;;;3.35;86.30;99568.98;1697340;81;27133;-78
2020/12/11 04:35:50;;;;;;;35.47;21.70;;;;;;;3.34;86.45;99577.76;1700333;81;21436;-79
2020/12/11 04:38:16;;;;;;;37.27;22.20;;;;;;;3.34;86.45;99573.84;1690493;82;25496;-79
2020/12/11 04:40:42;;;;;;;34.27;22.00;;;;;;;3.29;86.74;99577.31;1698345;82;20974;-78
2020/12/11 04:43:12;;;;;;;40.03;23.40;;;;;;;3.30;86.85;99578.98;1708325;82;27357;-78
2020/12/11 04:45:40;;;;;;;40.40;23.62;;;;;;;3.32;86.82;99573.15;1690241;81;21275;-78
2020/12/11 04:48:12;;;;;;;41.33;23.65;;;;;;;3.39;86.71;99572.53;1695384;81;22550;-78
2020/12/11 04:50:37;;;;;;;40.75;23.02;;;;;;;3.41;86.57;99560.66;1706092;82;21159;-78
2020/12/11 04:53:04;;;;;;;35.70;23.37;;;;;;;3.36;86.60;99564.13;1696148;82;21864;-79
2020/12/11 04:55:32;;;;;;;42.05;24.00;;;;;;;3.38;86.64;99560.91;1695891;82;21192;-78
2020/12/11 04:57:57;;;;;;;40.12;24.32;;;;;;;3.45;86.51;99559.47;1687255;82;21116;-78
2020/12/11 05:00:23;;;;;;;42.90;25.77;;;;;;;3.47;86.32;99562.77;1700668;82;21265;-78
2020/12/11 05:02:49;;;;;;;38.67;24.23;;;;;;;3.46;86.32;99563.72;1700567;81;26618;-78
2020/12/11 05:05:16;;;;;;;40.60;24.15;;;;;;;3.39;86.42;99567.80;1703914;82;21196;-82
2020/12/11 05:07:43;;;;;;;40.60;24.45;;;;;;;3.46;86.35;99571.55;1694004;82;27519;-79
2020/12/11 05:10:10;;;;;;;43.40;24.92;;;;;;;3.50;86.25;99574.76;1710068;82;21507;-79
2020/12/11 05:12:36;;;;;;;43.35;25.43;;;;;;;3.45;86.38;99571.67;1700706;82;21197;-79
2020/12/11 05:15:09;;;;;;;39.35;25.27;;;;;;;3.45;86.38;99571.22;1707988;81;21507;-78
2020/12/11 05:17:37;;;;;;;41.88;24.85;;;;;;;3.50;86.38;99574.76;1701726;81;21179;-79
2020/12/11 05:20:04;;;;;;;;;;;;;;;3.43;86.42;99580.93;1702402;81;21219;-79
2020/12/11 05:22:34;;;;;;;41.35;23.12;;;;;;;3.43;86.55;99577.02;1687587;82;20579;-80
2020/12/11 05:25:00;;;;;;;46.40;26.00;;;;;;;3.47;86.40;99589.36;1703130;82;21229;-79
2020/12/11 05:27:35;;;;;;;45.20;26.33;;;;;;;3.43;86.36;99587.45;1706629;82;24491;-79
2020/12/11 05:30:18;;;;;;;48.38;26.25;;;;;;;3.48;86.40;99589.23;1698246;82;21280;-78
2020/12/11 05:32:52;;;;;;;45.58;25.80;;;;;;;3.52;86.33;99588.50;1690702;82;21295;-79
2020/12/11 05:35:24;;;;;;;48.02;26.97;;;;;;;3.53;86.22;99589.69;1701440;82;21240;-79
2020/12/11 05:38:02;;;;;;;48.85;27.37;;;;;;;3.48;86.36;99591.84;1698826;82;21329;-78
2020/12/11 05:40:33;;;;;;;50.25;28.17;;;;;;;3.47;86.32;99588.87;1686080;81;22311;-78
2020/12/11 05:43:18;;;;;;;47.08;28.35;;;;;;;3.46;86.44;99591.13;1707018;82;21136;-77
2020/12/11 05:45:58;;;;;;;48.45;27.60;;;;;;;3.50;86.40;99588.63;1686008;82;21262;-79
2020/12/11 05:48:27;;;;;;;51.00;29.18;;;;;;;3.45;86.43;99588.19;1697624;82;21216;-78
2020/12/11 05:50:53;;;;;;;46.25;27.02;;;;;;;3.46;86.42;99583.30;1685364;82;21195;-78
2020/12/11 05:53:19;;;;;;;49.57;28.17;;;;;;;3.47;86.36;99586.27;1703208;82;24099;-79
2020/12/11 05:55:46;;;;;;;46.68;27.30;;;;;;;3.48;86.35;99577.49;1693209;81;21644;-78
2020/12/11 05:58:12;;;;;;;52.62;28.55;;;;;;;3.44;86.60;99583.91;1717465;81;21201;-79
2020/12/11 06:00:40;;;;;;;52.08;29.60;;;;;;;3.50;86.72;99586.02;1710852;82;25330;-80
2020/12/11 06:03:07;;;;;;;53.52;28.07;;;;;;;3.58;86.55;99584.91;1701387;82;22562;-80
2020/12/11 06:05:38;;;;;;;46.50;27.67;;;;;;;3.64;86.28;99592.73;1692542;82;21499;-78
2020/12/11 06:08:10;;;;;;;53.30;27.50;;;;;;;3.66;86.20;99600.44;1706416;82;21245;-78
2020/12/11 06:10:37;;;;;;;46.40;27.48;;;;;;;3.68;86.04;99603.73;1717075;81;21295;-78
2020/12/11 06:13:04;;;;;;;51.10;28.12;;;;;;;3.70;86.00;99599.24;1703083;81;21224;-79
2020/12/11 06:15:43;;;;;;;50.98;27.55;;;;;;;3.73;85.81;99612.05;1703755;82;21556;-80
2020/12/11 06:18:25;;;;;;;52.78;29.75;;;;;;;3.70;85.79;99610.50;1689336;82;21147;-78
2020/12/11 06:20:55;;;;;;;54.48;29.72;;;;;;;3.77;85.66;99617.34;1705963;82;21243;-79
2020/12/11 06:23:31;;;;;;;52.75;30.08;;;;;;;3.68;85.75;99608.96;1702001;81;21219;-78
2020/12/11 06:25:59;;;;;;;56.88;28.30;;;;;;;3.68;85.72;99616.80;1698335;82;21203;-79
2020/12/11 06:28:45;;;;;;;47.85;27.93;;;;;;;3.66;85.90;99616.10;1704172;82;21314;-83
2020/12/11 06:31:18;;;;;;;49.53;27.62;;;;;;;3.61;86.08;99615.66;1696602;81;21672;-77
2020/12/11 06:33:46;;;;;;;51.30;28.05;;;;;;;3.63;86.11;99616.34;1699869;82;21193;-78
2020/12/11 06:36:12;;;;;;;45.75;26.50;;;;;;;3.61;86.07;99615.17;1712770;82;21495;-77
2020/12/11 06:38:52;;;;;;;50.10;28.80;;;;;;;3.61;86.14;99611.73;1703524;81;27339;-77
2020/12/11 06:41:35;;;;;;;51.73;27.90;;;;;;;3.51;86.41;99608.56;1705512;81;21240;-78
2020/12/11 06:44:15;;;;;;;48.15;27.77;;;;;;;3.58;86.29;99607.58;1700483;82;21227;-77
2020/12/11 06:46:40;;;;;;;50.10;27.20;;;;;;;3.54;86.32;99608.32;1706277;82;21671;-78
2020/12/11 06:49:22;;;;;;;47.90;27.58;;;;;;;3.49;86.48;99610.45;1698365;82;28431;-79
2020/12/11 06:51:53;;;;;;;50.20;28.32;;;;;;;3.51;86.62;99611.64;1703931;82;21264;-79
2020/12/11 06:54:28;;;;;;;51.65;27.50;;;;;;;3.48;86.60;99608.81;1714387;82;21212;-78
2020/12/11 06:56:55;;;;;;;50.38;26.68;;;;;;;3.49;86.63;99615.67;1698510;82;21201;-79
2020/12/11 06:59:24;;;;;;;;;;;;;;;3.49;86.64;99615.67;1708273;82;21121;-77
2020/12/11 07:02:04;;;;;;;48.73;24.27;;;;;;;3.49;86.67;99618.28;1709145;82;20527;-80
2020/12/11 07:04:42;;;;;;;45.20;25.65;;;;;;;3.46;86.82;99614.61;1705269;82;21109;-80
2020/12/11 07:07:08;;;;;;;44.10;26.37;;;;;;;3.47;86.78;99618.89;1701980;81;22493;-77
2020/12/11 07:09:44;;;;;;;47.63;26.77;;;;;;;3.50;86.78;99625.17;1695059;82;23530;-78
2020/12/11 07:12:11;;;;;;;44.23;24.50;;;;;;;3.46;86.69;99621.14;1704408;82;21173;-78
2020/12/11 07:14:36;;;;;;;42.48;24.18;;;;;;;3.50;86.63;99627.78;1704881;81;21260;-78
2020/12/11 07:17:02;;;;;;;40.67;24.65;;;;;;;3.49;86.58;99622.20;1700790;82;26852;-80
2020/12/11 07:19:35;;;;;;;44.63;25.12;;;;;;;3.43;86.67;99626.61;1712360;82;21448;-80
2020/12/11 07:22:02;;;;;;;42.20;24.20;;;;;;;3.41;86.75;99620.69;1703111;81;21327;-82
2020/12/11 07:24:35;;;;;;;47.23;25.77;;;;;;;3.46;86.67;99626.36;1706635;82;21205;-79
2020/12/11 07:27:03;;;;;;;43.50;25.15;;;;;;;3.40;86.92;99624.24;1700530;81;22289;-79
2020/12/11 07:29:29;;;;;;;43.90;24.87;;;;;;;3.43;86.88;99618.78;1717903;81;21234;-78
2020/12/11 07:31:57;;;;;;;46.23;25.10;;;;;;;3.49;86.77;99626.12;1698720;82;21894;-79
2020/12/11 07:34:26;;;;;;;46.35;25.82;;;;;;;3.48;86.79;99627.09;1689601;82;21196;-80
2020/12/11 07:36:56;;;;;;;41.37;25.25;;;;;;;3.48;86.82;99627.09;1701323;81;21254;-77
2020/12/11 07:39:26;;;;;;;44.55;24.98;;;;;;;3.51;86.87;99625.53;1708036;82;21164;-78
2020/12/11 07:41:54;;;;;;;46.53;25.17;;;;;;;3.61;86.63;99623.48;1686084;82;21237;-77
2020/12/11 07:44:33;;;;;;;40.90;24.85;;;;;;;3.58;86.45;99624.06;1682909;82;21341;-78
2020/12/11 07:47:01;;;;;;;46.90;25.52;;;;;;;3.58;86.50;99616.72;1704557;82;21243;-78
2020/12/11 07:49:37;;;;;;;47.67;26.42;;;;;;;3.64;86.41;99619.33;1707129;82;21569;-78
2020/12/11 07:52:03;;;;;;;44.48;26.00;;;;;;;3.64;86.26;99612.31;1697749;81;21227;-76
2020/12/11 07:54:39;;;;;;;49.42;26.48;;;;;;;3.69;86.38;99608.02;1705691;82;25356;-76
2020/12/11 07:57:19;;;;;;;44.50;25.68;;;;;;;3.68;86.11;99607.20;1698013;82;21389;-76
2020/12/11 08:00:05;;;;;;;42.85;25.45;;;;;;;3.71;86.29;99611.32;1690957;82;21210;-78
2020/12/11 08:02:33;;;;;;;44.75;24.98;;;;;;;3.78;86.28;99609.88;1696795;81;21692;-77
2020/12/11 08:04:58;;;;;;;;;;;;;;;3.85;85.91;99607.09;1698444;82;21116;-80
2020/12/11 08:07:29;;;;;;;46.02;25.88;;;;;;;3.87;85.71;99609.12;1713865;81;20205;-78
2020/12/11 08:10:10;;;;;;;46.65;26.00;;;;;;;3.88;85.58;99602.92;1719470;82;21180;-78
2020/12/11 08:12:36;;;;;;;48.23;25.72;;;;;;;3.84;85.56;99609.38;1701091;82;21275;-79
2020/12/11 08:15:03;;;;;;;42.98;26.05;;;;;;;3.81;85.62;99615.30;1713899;82;21220;-78
2020/12/11 08:17:30;;;;;;;48.92;25.68;;;;;;;3.81;85.73;99614.84;1696292;82;22239;-79
2020/12/11 08:20:07;;;;;;;46.37;25.90;;;;;;;3.81;85.69;99619.22;1701214;81;21175;-81
2020/12/11 08:22:38;;;;;;;48.63;27.05;;;;;;;3.81;85.80;99621.84;1710109;81;21227;-79
2020/12/11 08:25:23;;;;;;;46.00;27.25;;;;;;;3.85;85.63;99616.23;1706452;82;21287;-79
2020/12/11 08:27:52;;;;;;;48.10;27.22;;;;;;;3.88;85.53;99618.59;1694944;82;21168;-79
2020/12/11 08:30:19;;;;;;;53.95;28.50;;;;;;;3.85;85.63;99620.16;1704033;82;21243;-76
2020/12/11 08:32:47;;;;;;;51.13;26.17;;;;;;;3.83;85.51;99618.16;1706870;82;21676;-78
2020/12/11 08:35:16;;;;;;;;;;;;;;;3.87;85.43;99622.18;1720266;81;21188;-79
2020/12/11 08:37:56;;;;;;;49.80;27.98;;;;;;;3.87;85.42;99620.87;1705067;82;20305;-78
2020/12/11 08:40:23;;;;;;;50.78;27.52;;;;;;;3.88;85.36;99614.67;1702641;81;21918;-78
2020/12/11 08:43:07;;;;;;;54.48;26.77;;;;;;;3.92;85.38;99617.40;1703689;82;21223;-77
2020/12/11 08:45:34;;;;;;;44.03;26.90;;;;;;;3.89;85.31;99615.04;1705542;81;21187;-78
2020/12/11 08:50:57;;;;;;;54.88;28.73;;;;;;;3.92;85.19;99617.40;1704249;82;20303;-77
2020/12/11 08:53:16;;;;;;;55.43;28.07;;;;;;;3.88;85.49;99610.76;1703738;82;21279;-78
2020/12/11 08:55:42;;;;;;;53.05;28.92;;;;;;;3.90;85.50;99608.02;1700453;82;22089;-78
2020/12/11 08:58:08;;;;;;;51.75;31.00;;;;;;;3.92;85.43;99606.95;1697124;81;25161;-80
2020/12/11 09:00:36;;;;;;;55.00;30.47;;;;;;;3.91;85.38;99606.59;1705064;82;21155;-78
2020/12/11 09:03:01;;;;;;;;;;;;;;;3.92;85.38;99608.26;1707697;82;21734;-79
2020/12/11 09:05:27;;;;;;;58.70;29.70;;;;;;;3.88;85.43;99599.49;1704051;82;20902;-79
2020/12/11 09:07:53;;;;;;;59.38;32.45;;;;;;;3.92;85.31;99601.73;1699473;82;28351;-81
2020/12/11 09:10:19;;;;;;;65.55;33.08;;;;;;;3.88;85.36;99602.11;1708435;81;21216;-79
2020/12/11 09:12:50;;;;;;;67.35;34.08;;;;;;;3.89;85.45;99596.75;1696598;81;21608;-77
2020/12/11 09:15:13;;;;;;;61.05;34.40;;;;;;;3.95;85.42;99600.16;1698805;81;21693;-77
2020/12/11 09:17:39;;;;;;;77.05;34.15;;;;;;;4.01;85.30;99595.38;1693762;82;21602;-76
2020/12/11 09:20:05;;;;;;;70.70;35.60;;;;;;;3.98;85.14;99590.41;1711852;82;28561;-76
2020/12/11 09:22:32;;;;;;;66.30;35.38;;;;;;;4.01;85.12;99593.61;1698358;82;21239;-75
2020/12/11 09:24:58;;;;;;;69.97;34.18;;;;;;;4.06;85.01;99593.23;1699543;82;21249;-77
2020/12/11 09:27:24;;;;;;;67.03;36.05;;;;;;;4.05;85.03;99591.56;1705496;82;21735;-77
2020/12/11 09:29:52;;;;;;;70.92;35.35;;;;;;;4.05;85.04;99585.03;1707055;81;21672;-76
2020/12/11 09:32:30;;;;;;;70.25;35.28;;;;;;;4.03;84.82;99586.95;1700951;81;21168;-76
2020/12/11 09:34:47;;;;;;;79.53;36.75;;;;;;;4.03;85.01;99581.73;1702891;82;21616;-78
2020/12/11 09:37:14;;;;;;;81.63;38.40;;;;;;;4.10;84.99;99577.62;1694792;81;21827;-78
2020/12/11 09:39:40;;;;;;;;;;;;;;;4.08;84.86;99571.22;1699246;82;21268;-80
2020/12/11 09:44:49;;;;;;;90.07;39.27;;;;;;;4.07;84.72;99577.88;1694915;82;21148;-80
2020/12/11 09:47:37;;;;;;;82.30;40.10;;;;;;;4.06;84.70;99568.41;1690948;82;21252;-80
2020/12/11 09:54:58;;;;;;;82.33;38.95;;;;;;;4.11;85.07;99567.05;1694957;83;21242;-80
2020/12/11 09:57:24;;;;;;;88.47;40.80;;;;;;;4.17;85.12;99563.09;1698648;82;28396;-82
2020/12/11 09:59:53;;;;;;;89.83;39.90;;;;;;;4.25;84.86;99560.66;1699149;81;26888;-81
2020/12/11 10:04:58;;;;;;;95.03;39.18;;;;;;;4.25;84.64;99552.81;1701230;82;21204;-81
2020/12/11 10:07:24;;;;;;;89.63;41.77;;;;;;;4.25;84.62;99549.39;1694076;82;23853;-80
2020/12/11 10:09:50;;;;;;;99.03;40.25;;;;;;;4.23;84.58;99543.47;1676060;82;28444;-80
2020/12/11 10:12:18;;;;;;;103.58;42.05;;;;;;;4.17;84.78;99534.36;1698948;82;26794;-82
2020/12/11 10:14:47;;;;;;;;;;;;;;;4.19;84.79;99535.05;1697738;81;21200;-80
2020/12/11 10:17:10;;;;;;;;;;;;;;;4.23;84.76;99537.76;1696031;81;20289;-79
2020/12/11 10:19:36;;;;;;;95.77;39.90;;;;;;;4.23;84.68;99535.63;1696772;81;22934;-80
2020/12/11 10:22:02;;;;;;;108.12;41.92;;;;;;;4.19;84.74;99523.77;1707961;81;28469;-79
2020/12/11 10:24:28;;;;;;;104.50;42.90;;;;;;;4.15;85.09;99528.45;1699095;82;26720;-79
2020/12/11 10:26:53;;;;;;;104.23;44.23;;;;;;;4.14;84.98;99528.90;1695224;82;22429;-79
2020/12/11 10:29:19;;;;;;;106.90;44.13;;;;;;;4.11;85.04;99527.03;1703859;82;24533;-79
2020/12/11 10:31:45;;;;;;;101.80;41.33;;;;;;;4.13;85.05;99530.34;1692901;82;21833;-80
2020/12/11 10:34:16;;;;;;;101.55;43.87;;;;;;;4.13;85.25;99532.95;1699681;82;28366;-78
2020/12/11 10:36:42;;;;;;;97.30;41.45;;;;;;;4.12;85.25;99536.54;1705955;81;21824;-79
2020/12/11 10:39:08;;;;;;;101.75;40.52;;;;;;;4.13;85.15;99529.03;1701054;81;21348;-79
2020/12/11 10:41:34;;;;;;;93.00;41.23;;;;;;;4.10;85.16;99530.59;1697276;82;24579;-79
2020/12/11 10:44:00;;;;;;;95.23;42.63;;;;;;;4.16;85.25;99518.31;1699401;82;24756;-80
2020/12/11 10:46:26;;;;;;;96.45;38.70;;;;;;;4.16;85.07;99518.31;1699540;82;21182;-80
2020/12/11 10:48:52;;;;;;;92.92;38.80;;;;;;;4.15;85.15;99515.38;1709698;82;26755;-81
2020/12/11 10:51:17;;;;;;;88.07;39.75;;;;;;;4.10;85.19;99515.77;1693572;81;22130;-82
2020/12/11 10:53:44;;;;;;;87.20;40.27;;;;;;;4.14;85.32;99516.33;1701075;81;27537;-81
2020/12/11 10:56:10;;;;;;;90.20;38.73;;;;;;;4.12;85.21;99515.64;1704429;82;21163;-81
2020/12/11 10:58:36;;;;;;;92.25;39.18;;;;;;;4.08;85.54;99515.05;1696502;82;27672;-81
2020/12/11 11:01:04;;;;;;;79.72;37.78;;;;;;;4.11;85.35;99517.41;1694688;82;26937;-81
2020/12/11 11:03:31;;;;;;;86.95;39.20;;;;;;;4.16;85.40;99517.50;1711358;82;21172;-81
2020/12/11 11:06:02;;;;;;;82.12;38.48;;;;;;;4.21;85.18;99518.78;1704858;82;21807;-80
2020/12/11 11:08:37;;;;;;;91.85;40.05;;;;;;;4.24;85.11;99515.91;1697552;82;21302;-80
2020/12/11 11:10:59;;;;;;;85.83;39.98;;;;;;;4.25;85.03;99519.33;1704812;82;21282;-81
2020/12/11 11:15:55;;;;;;;85.75;40.88;;;;;;;4.21;85.13;99521.39;1699604;82;21258;-81
2020/12/11 11:18:36;;;;;;;85.12;41.42;;;;;;;4.22;85.16;99513.87;1697831;82;21683;-82
2020/12/11 11:21:28;;;;;;;93.93;39.87;;;;;;;4.18;85.20;99513.81;1697488;82;21112;-81
2020/12/11 11:26:23;;;;;;;85.77;39.90;;;;;;;4.15;85.47;99515.38;1705381;82;21196;-80
2020/12/11 11:28:42;;;;;;;82.85;39.75;;;;;;;4.23;85.46;99515.55;1703036;82;21236;-79
2020/12/11 11:31:11;;;;;;;85.40;38.83;;;;;;;4.30;85.46;99505.37;1704760;82;23642;-80
2020/12/11 11:33:37;;;;;;;78.60;39.85;;;;;;;4.34;85.29;99508.58;1689510;82;22232;-79
2020/12/11 11:36:03;;;;;;;83.67;37.95;;;;;;;4.37;85.04;99505.70;1687003;82;29438;-80
2020/12/11 11:38:29;;;;;;;74.45;37.63;;;;;;;4.44;84.94;99513.34;1701379;82;26858;-80
2020/12/11 11:40:55;;;;;;;74.32;35.98;;;;;;;4.43;84.64;99513.83;1690688;82;22255;-79
2020/12/11 11:43:39;;;;;;;72.23;36.63;;;;;;;4.38;84.57;99508.19;1706507;81;27491;-80
2020/12/11 11:45:48;;;;;;;;;;;;;;;4.38;84.67;99510.80;1701956;82;21113;-80
2020/12/11 11:48:16;;;;;;;70.15;34.27;;;;;;;4.35;84.67;99503.67;1702319;82;20161;-80
2020/12/11 11:50:49;;;;;;;73.40;36.25;;;;;;;4.35;84.75;99503.67;1706214;81;21076;-81
2020/12/11 11:53:18;;;;;;;;;;;;;;;4.35;84.64;99503.67;1705456;82;21733;-80